VSV722 UATT-UACC
Flight info
| Callsign | VSV722 |
|---|---|
| Flight time | 1h 28m |
| Altitude | 35000 |
| Route | LITBA M166 ARK N996 TUSEP L988 OSROL |
| Aircraft | B738/M-SDE2E3FGHIRWXY/LB1 |
Departure
| Time | 2026-05-06 15:01 |
|---|---|
| Airport | Aktobe International Airport (UATT) |
Arrival
| Time | 2026-05-06 16:30 |
|---|---|
| Airport | Nursultan Nazarbayev International Airport (UACC) |
| Time | Latitude | Longitude | Altitude | Speed | Heading |
|---|---|---|---|---|---|
| 2026-05-06 15:01 | 50.22562 | 57.25748 | 3069 ft | 208 kts | 79° |
| 2026-05-06 15:01 | 50.23262 | 57.27797 | 3595 ft | 226 kts | 50° |
| 2026-05-06 15:01 | 50.24384 | 57.29628 | 4137 ft | 243 kts | 46° |
| 2026-05-06 15:01 | 50.25577 | 57.31615 | 4683 ft | 260 kts | 54° |
| 2026-05-06 15:02 | 50.26379 | 57.34184 | 5284 ft | 270 kts | 78° |
| 2026-05-06 15:02 | 50.26818 | 57.37103 | 6012 ft | 281 kts | 79° |
| 2026-05-06 15:02 | 50.27246 | 57.40078 | 6917 ft | 283 kts | 82° |
| 2026-05-06 15:02 | 50.27529 | 57.43089 | 7754 ft | 286 kts | 87° |
| 2026-05-06 15:03 | 50.27694 | 57.46178 | 8578 ft | 290 kts | 90° |
| 2026-05-06 15:03 | 50.27805 | 57.49316 | 9407 ft | 293 kts | 91° |
| 2026-05-06 15:03 | 50.27906 | 57.52473 | 10218 ft | 297 kts | 91° |
| 2026-05-06 15:03 | 50.28012 | 57.55754 | 10696 ft | 313 kts | 90° |
| 2026-05-06 15:04 | 50.28133 | 57.59270 | 11132 ft | 331 kts | 90° |
| 2026-05-06 15:04 | 50.28268 | 57.62940 | 11578 ft | 347 kts | 89° |
| 2026-05-06 15:04 | 50.28413 | 57.66745 | 12045 ft | 362 kts | 90° |
| 2026-05-06 15:04 | 50.28568 | 57.70716 | 12718 ft | 370 kts | 89° |
| 2026-05-06 15:05 | 50.28728 | 57.74766 | 13438 ft | 377 kts | 89° |
| 2026-05-06 15:05 | 50.28890 | 57.78835 | 14215 ft | 380 kts | 89° |
| 2026-05-06 15:05 | 50.29052 | 57.82948 | 14908 ft | 386 kts | 89° |
| 2026-05-06 15:05 | 50.29217 | 57.87126 | 15660 ft | 390 kts | 89° |
| 2026-05-06 15:06 | 50.29385 | 57.91376 | 16342 ft | 394 kts | 90° |
| 2026-05-06 15:06 | 50.29555 | 57.95642 | 17036 ft | 398 kts | 90° |
| 2026-05-06 15:06 | 50.29729 | 57.99996 | 17717 ft | 403 kts | 90° |
| 2026-05-06 15:06 | 50.29904 | 58.04342 | 18316 ft | 408 kts | 90° |
| 2026-05-06 15:07 | 50.30084 | 58.08798 | 19008 ft | 411 kts | 90° |
| 2026-05-06 15:07 | 50.30265 | 58.13216 | 19608 ft | 416 kts | 90° |
| 2026-05-06 15:07 | 50.30454 | 58.17780 | 20191 ft | 421 kts | 90° |
| 2026-05-06 15:07 | 50.30643 | 58.22303 | 20781 ft | 425 kts | 90° |
| 2026-05-06 15:08 | 50.30839 | 58.26942 | 21388 ft | 428 kts | 90° |
| 2026-05-06 15:08 | 50.31035 | 58.31570 | 21924 ft | 433 kts | 90° |
| 2026-05-06 15:08 | 50.31236 | 58.36291 | 22520 ft | 436 kts | 90° |
| 2026-05-06 15:08 | 50.31436 | 58.40991 | 23053 ft | 439 kts | 90° |
| 2026-05-06 15:09 | 50.31622 | 58.45717 | 23591 ft | 443 kts | 90° |
| 2026-05-06 15:09 | 50.31799 | 58.50589 | 24078 ft | 447 kts | 90° |
| 2026-05-06 15:09 | 50.31966 | 58.55426 | 24582 ft | 451 kts | 91° |
| 2026-05-06 15:09 | 50.32131 | 58.60294 | 25062 ft | 455 kts | 91° |
| 2026-05-06 15:10 | 50.32298 | 58.65270 | 25610 ft | 456 kts | 92° |
| 2026-05-06 15:10 | 50.32464 | 58.70224 | 26065 ft | 460 kts | 92° |
| 2026-05-06 15:10 | 50.32628 | 58.75164 | 26493 ft | 464 kts | 92° |
| 2026-05-06 15:10 | 50.32794 | 58.80197 | 26962 ft | 466 kts | 92° |
| 2026-05-06 15:11 | 50.32962 | 58.85293 | 27450 ft | 469 kts | 92° |
| 2026-05-06 15:11 | 50.33126 | 58.90370 | 27840 ft | 472 kts | 92° |
| 2026-05-06 15:11 | 50.33290 | 58.95495 | 28265 ft | 476 kts | 92° |
| 2026-05-06 15:11 | 50.33453 | 59.00653 | 28746 ft | 477 kts | 92° |
| 2026-05-06 15:12 | 50.33615 | 59.05840 | 29134 ft | 480 kts | 92° |
| 2026-05-06 15:12 | 50.33775 | 59.11005 | 29593 ft | 482 kts | 92° |
| 2026-05-06 15:12 | 50.33935 | 59.16247 | 30129 ft | 481 kts | 92° |
| 2026-05-06 15:12 | 50.34093 | 59.21431 | 30739 ft | 477 kts | 93° |
| 2026-05-06 15:13 | 50.34249 | 59.26605 | 31345 ft | 474 kts | 92° |
| 2026-05-06 15:13 | 50.34401 | 59.31724 | 31828 ft | 473 kts | 92° |
| 2026-05-06 15:13 | 50.34546 | 59.36802 | 32258 ft | 473 kts | 92° |
| 2026-05-06 15:13 | 50.34690 | 59.41920 | 32672 ft | 473 kts | 92° |
| 2026-05-06 15:14 | 50.34831 | 59.47022 | 33127 ft | 471 kts | 92° |
| 2026-05-06 15:14 | 50.34971 | 59.52137 | 33581 ft | 470 kts | 92° |
| 2026-05-06 15:14 | 50.35110 | 59.57297 | 33999 ft | 469 kts | 92° |
| 2026-05-06 15:14 | 50.35247 | 59.62456 | 34405 ft | 469 kts | 92° |
| 2026-05-06 15:15 | 50.35379 | 59.67588 | 34659 ft | 469 kts | 93° |
| 2026-05-06 15:15 | 50.35509 | 59.72756 | 34853 ft | 470 kts | 93° |
| 2026-05-06 15:15 | 50.35636 | 59.77902 | 34882 ft | 473 kts | 93° |
| 2026-05-06 15:16 | 50.35888 | 59.88150 | 34903 ft | 467 kts | 93° |
| 2026-05-06 15:16 | 50.36129 | 59.98319 | 34907 ft | 467 kts | 94° |
| 2026-05-06 15:17 | 50.36359 | 60.08431 | 34906 ft | 465 kts | 94° |
| 2026-05-06 15:17 | 50.36579 | 60.18531 | 34916 ft | 466 kts | 94° |
| 2026-05-06 15:18 | 50.36791 | 60.28677 | 34916 ft | 466 kts | 94° |
| 2026-05-06 15:18 | 50.36993 | 60.38841 | 34910 ft | 467 kts | 94° |
| 2026-05-06 15:19 | 50.37186 | 60.48986 | 34920 ft | 466 kts | 94° |
| 2026-05-06 15:19 | 50.37372 | 60.59091 | 34917 ft | 466 kts | 94° |
| 2026-05-06 15:20 | 50.37548 | 60.69178 | 34921 ft | 466 kts | 95° |
| 2026-05-06 15:20 | 50.37716 | 60.79293 | 34921 ft | 465 kts | 94° |
| 2026-05-06 15:21 | 50.37876 | 60.89404 | 34919 ft | 464 kts | 95° |
| 2026-05-06 15:21 | 50.38027 | 60.99516 | 34920 ft | 465 kts | 95° |
| 2026-05-06 15:22 | 50.38169 | 61.09586 | 34922 ft | 464 kts | 95° |
| 2026-05-06 15:22 | 50.38305 | 61.19674 | 34923 ft | 463 kts | 94° |
| 2026-05-06 15:23 | 50.38430 | 61.29716 | 34931 ft | 465 kts | 95° |
| 2026-05-06 15:23 | 50.38543 | 61.39811 | 34932 ft | 465 kts | 94° |
| 2026-05-06 15:24 | 50.38645 | 61.49917 | 34931 ft | 464 kts | 94° |
| 2026-05-06 15:24 | 50.38739 | 61.60052 | 34927 ft | 467 kts | 94° |
| 2026-05-06 15:25 | 50.38825 | 61.70176 | 34933 ft | 466 kts | 95° |
| 2026-05-06 15:25 | 50.38911 | 61.80342 | 34938 ft | 464 kts | 95° |
| 2026-05-06 15:26 | 50.38983 | 61.90457 | 34937 ft | 466 kts | 95° |
| 2026-05-06 15:26 | 50.39045 | 62.00602 | 34930 ft | 466 kts | 95° |
| 2026-05-06 15:27 | 50.39096 | 62.10672 | 34929 ft | 466 kts | 95° |
| 2026-05-06 15:27 | 50.39139 | 62.20861 | 34924 ft | 467 kts | 95° |
| 2026-05-06 15:28 | 50.39171 | 62.31028 | 34933 ft | 468 kts | 95° |
| 2026-05-06 15:28 | 50.39194 | 62.41173 | 34941 ft | 469 kts | 95° |
| 2026-05-06 15:29 | 50.39222 | 62.51401 | 34943 ft | 469 kts | 95° |
| 2026-05-06 15:29 | 50.39247 | 62.61537 | 34947 ft | 469 kts | 95° |
| 2026-05-06 15:30 | 50.39260 | 62.71768 | 34951 ft | 470 kts | 95° |
| 2026-05-06 15:30 | 50.39265 | 62.82070 | 34953 ft | 471 kts | 95° |
| 2026-05-06 15:31 | 50.39262 | 62.92281 | 34950 ft | 470 kts | 95° |
| 2026-05-06 15:31 | 50.39251 | 63.02500 | 34947 ft | 470 kts | 95° |
| 2026-05-06 15:32 | 50.39217 | 63.17900 | 34951 ft | 472 kts | 95° |
| 2026-05-06 15:32 | 50.39184 | 63.28194 | 34954 ft | 473 kts | 95° |
| 2026-05-06 15:33 | 50.39143 | 63.38502 | 34956 ft | 475 kts | 95° |
| 2026-05-06 15:33 | 50.39094 | 63.48793 | 34960 ft | 473 kts | 95° |
| 2026-05-06 15:34 | 50.39036 | 63.59062 | 34958 ft | 476 kts | 95° |
| 2026-05-06 15:34 | 50.38965 | 63.69366 | 34959 ft | 476 kts | 96° |
| 2026-05-06 15:35 | 50.38887 | 63.79671 | 34959 ft | 476 kts | 96° |
| 2026-05-06 15:35 | 50.38799 | 63.90064 | 34964 ft | 477 kts | 96° |
| 2026-05-06 15:36 | 50.38704 | 64.00459 | 34971 ft | 477 kts | 95° |
| 2026-05-06 15:36 | 50.38599 | 64.10817 | 34973 ft | 477 kts | 95° |
| 2026-05-06 15:37 | 50.38483 | 64.21197 | 34980 ft | 478 kts | 95° |
| 2026-05-06 15:37 | 50.38359 | 64.31609 | 34989 ft | 479 kts | 95° |
| 2026-05-06 15:38 | 50.38237 | 64.42020 | 34985 ft | 479 kts | 95° |
| 2026-05-06 15:38 | 50.38121 | 64.52383 | 34984 ft | 481 kts | 95° |
| 2026-05-06 15:39 | 50.37996 | 64.62824 | 34989 ft | 480 kts | 95° |
| 2026-05-06 15:39 | 50.37863 | 64.73290 | 34985 ft | 479 kts | 96° |
| 2026-05-06 15:40 | 50.37719 | 64.83639 | 34996 ft | 479 kts | 96° |
| 2026-05-06 15:40 | 50.37560 | 64.94093 | 34999 ft | 481 kts | 96° |
| 2026-05-06 15:41 | 50.37393 | 65.04557 | 35007 ft | 480 kts | 96° |
| 2026-05-06 15:41 | 50.37217 | 65.14981 | 35006 ft | 479 kts | 96° |
| 2026-05-06 15:42 | 50.37033 | 65.25395 | 35009 ft | 479 kts | 96° |
| 2026-05-06 15:42 | 50.36834 | 65.35841 | 35014 ft | 479 kts | 95° |
| 2026-05-06 15:43 | 50.36628 | 65.46260 | 35015 ft | 480 kts | 96° |
| 2026-05-06 15:43 | 50.36412 | 65.56662 | 35026 ft | 481 kts | 95° |
| 2026-05-06 15:44 | 50.36188 | 65.67137 | 35028 ft | 479 kts | 96° |
| 2026-05-06 15:44 | 50.35957 | 65.77563 | 35030 ft | 478 kts | 96° |
| 2026-05-06 15:45 | 50.35713 | 65.87952 | 35036 ft | 479 kts | 96° |
| 2026-05-06 15:45 | 50.35418 | 65.98308 | 35037 ft | 477 kts | 97° |
| 2026-05-06 15:46 | 50.35089 | 66.08684 | 35041 ft | 481 kts | 96° |
| 2026-05-06 15:46 | 50.34754 | 66.19047 | 35044 ft | 478 kts | 96° |
| 2026-05-06 15:47 | 50.34414 | 66.29438 | 35046 ft | 479 kts | 97° |
| 2026-05-06 15:47 | 50.34064 | 66.39898 | 35048 ft | 480 kts | 96° |
| 2026-05-06 15:48 | 50.33705 | 66.50314 | 35053 ft | 480 kts | 96° |
| 2026-05-06 15:48 | 50.33335 | 66.60731 | 35055 ft | 481 kts | 96° |
| 2026-05-06 15:49 | 50.32953 | 66.71195 | 35055 ft | 480 kts | 97° |
| 2026-05-06 15:49 | 50.32565 | 66.81648 | 35059 ft | 481 kts | 97° |
| 2026-05-06 15:50 | 50.32168 | 66.92090 | 35062 ft | 481 kts | 96° |
| 2026-05-06 15:50 | 50.32201 | 67.02598 | 35062 ft | 484 kts | 85° |
| 2026-05-06 15:51 | 50.33591 | 67.12927 | 35065 ft | 487 kts | 76° |
| 2026-05-06 15:51 | 50.35560 | 67.23027 | 35066 ft | 486 kts | 72° |
| 2026-05-06 15:52 | 50.37624 | 67.33141 | 35066 ft | 487 kts | 73° |
| 2026-05-06 15:52 | 50.39633 | 67.43281 | 35069 ft | 486 kts | 73° |
| 2026-05-06 15:53 | 50.41580 | 67.53387 | 35069 ft | 485 kts | 73° |
| 2026-05-06 15:53 | 50.43497 | 67.63505 | 35069 ft | 486 kts | 73° |
| 2026-05-06 15:54 | 50.45395 | 67.73595 | 35070 ft | 485 kts | 74° |
| 2026-05-06 15:54 | 50.47288 | 67.83744 | 35072 ft | 486 kts | 73° |
| 2026-05-06 15:55 | 50.49159 | 67.93856 | 35073 ft | 483 kts | 73° |
| 2026-05-06 15:55 | 50.51024 | 68.04012 | 35075 ft | 483 kts | 74° |
| 2026-05-06 15:56 | 50.52878 | 68.14178 | 35078 ft | 485 kts | 74° |
| 2026-05-06 15:56 | 50.54568 | 68.24392 | 35078 ft | 486 kts | 76° |
| 2026-05-06 15:57 | 50.56124 | 68.34697 | 35077 ft | 485 kts | 76° |
| 2026-05-06 15:57 | 50.57670 | 68.45051 | 35076 ft | 487 kts | 76° |
| 2026-05-06 15:58 | 50.59227 | 68.55411 | 35076 ft | 489 kts | 76° |
| 2026-05-06 15:58 | 50.60789 | 68.65808 | 35074 ft | 488 kts | 76° |
| 2026-05-06 15:59 | 50.62365 | 68.76269 | 35077 ft | 490 kts | 76° |
| 2026-05-06 15:59 | 50.63923 | 68.86679 | 35080 ft | 488 kts | 76° |
| 2026-05-06 16:00 | 50.65468 | 68.97073 | 35080 ft | 490 kts | 76° |
| 2026-05-06 16:00 | 50.67017 | 69.07553 | 35080 ft | 489 kts | 76° |
| 2026-05-06 16:01 | 50.68556 | 69.18010 | 35081 ft | 489 kts | 76° |
| 2026-05-06 16:01 | 50.70087 | 69.28500 | 35077 ft | 491 kts | 76° |
| 2026-05-06 16:02 | 50.71584 | 69.38850 | 34711 ft | 480 kts | 75° |
| 2026-05-06 16:02 | 50.72316 | 69.43924 | 34178 ft | 479 kts | 75° |
| 2026-05-06 16:02 | 50.73048 | 69.49026 | 33682 ft | 475 kts | 76° |
| 2026-05-06 16:03 | 50.73768 | 69.54058 | 33184 ft | 472 kts | 76° |
| 2026-05-06 16:03 | 50.74491 | 69.59131 | 32664 ft | 469 kts | 76° |
| 2026-05-06 16:03 | 50.75200 | 69.64110 | 32227 ft | 464 kts | 76° |
| 2026-05-06 16:03 | 50.75755 | 69.68020 | 31809 ft | 462 kts | 77° |
| 2026-05-06 16:04 | 50.76468 | 69.73060 | 31326 ft | 458 kts | 77° |
| 2026-05-06 16:04 | 50.77152 | 69.77916 | 30821 ft | 455 kts | 77° |
| 2026-05-06 16:04 | 50.77832 | 69.82772 | 30365 ft | 450 kts | 77° |
| 2026-05-06 16:05 | 50.78509 | 69.87593 | 29852 ft | 448 kts | 78° |
| 2026-05-06 16:05 | 50.79180 | 69.92386 | 29441 ft | 443 kts | 77° |
| 2026-05-06 16:05 | 50.79836 | 69.97090 | 28976 ft | 440 kts | 77° |
| 2026-05-06 16:05 | 50.80550 | 70.01792 | 28433 ft | 438 kts | 74° |
| 2026-05-06 16:06 | 50.81422 | 70.06300 | 28028 ft | 433 kts | 71° |
| 2026-05-06 16:06 | 50.82439 | 70.10815 | 27541 ft | 430 kts | 68° |
| 2026-05-06 16:06 | 50.83483 | 70.15163 | 27120 ft | 426 kts | 67° |
| 2026-05-06 16:06 | 50.84543 | 70.19497 | 26666 ft | 423 kts | 67° |
| 2026-05-06 16:07 | 50.85606 | 70.23833 | 26351 ft | 414 kts | 67° |
| 2026-05-06 16:07 | 50.86620 | 70.28011 | 26058 ft | 402 kts | 67° |
| 2026-05-06 16:07 | 50.87587 | 70.32042 | 25721 ft | 393 kts | 68° |
| 2026-05-06 16:07 | 50.88549 | 70.36092 | 25080 ft | 392 kts | 67° |
| 2026-05-06 16:08 | 50.89502 | 70.40113 | 24398 ft | 392 kts | 68° |
| 2026-05-06 16:08 | 50.90457 | 70.44146 | 23709 ft | 391 kts | 68° |
| 2026-05-06 16:08 | 50.91396 | 70.48140 | 23037 ft | 391 kts | 68° |
| 2026-05-06 16:08 | 50.92293 | 70.52187 | 22372 ft | 390 kts | 72° |
| 2026-05-06 16:09 | 50.92827 | 70.56352 | 21712 ft | 389 kts | 84° |
| 2026-05-06 16:09 | 50.92851 | 70.60644 | 21059 ft | 386 kts | 96° |
| 2026-05-06 16:09 | 50.92347 | 70.64729 | 20616 ft | 376 kts | 108° |
| 2026-05-06 16:09 | 50.91372 | 70.68458 | 20188 ft | 365 kts | 121° |
| 2026-05-06 16:10 | 50.89959 | 70.71744 | 19705 ft | 355 kts | 134° |
| 2026-05-06 16:10 | 50.88211 | 70.74386 | 19203 ft | 346 kts | 147° |
| 2026-05-06 16:10 | 50.86173 | 70.76270 | 18687 ft | 336 kts | 165° |
| 2026-05-06 16:10 | 50.83917 | 70.76688 | 18180 ft | 320 kts | 192° |
| 2026-05-06 16:11 | 50.81833 | 70.75730 | 17686 ft | 311 kts | 205° |
| 2026-05-06 16:11 | 50.79846 | 70.74357 | 17185 ft | 307 kts | 207° |
| 2026-05-06 16:11 | 50.77929 | 70.72920 | 16689 ft | 303 kts | 210° |
| 2026-05-06 16:11 | 50.76089 | 70.71387 | 16200 ft | 300 kts | 211° |
| 2026-05-06 16:12 | 50.74338 | 70.69665 | 15607 ft | 298 kts | 221° |
| 2026-05-06 16:12 | 50.72929 | 70.67345 | 14988 ft | 296 kts | 236° |
| 2026-05-06 16:12 | 50.71891 | 70.64533 | 14367 ft | 295 kts | 246° |
| 2026-05-06 16:12 | 50.71128 | 70.61559 | 13758 ft | 296 kts | 249° |
| 2026-05-06 16:13 | 50.70404 | 70.58551 | 13144 ft | 296 kts | 249° |
| 2026-05-06 16:13 | 50.69672 | 70.55523 | 12526 ft | 295 kts | 249° |
| 2026-05-06 16:13 | 50.68936 | 70.52499 | 11911 ft | 295 kts | 249° |
| 2026-05-06 16:13 | 50.68214 | 70.49526 | 11305 ft | 295 kts | 249° |
| 2026-05-06 16:14 | 50.67486 | 70.46516 | 10690 ft | 294 kts | 249° |
| 2026-05-06 16:14 | 50.66765 | 70.43527 | 10079 ft | 293 kts | 249° |
| 2026-05-06 16:14 | 50.66094 | 70.40469 | 9459 ft | 293 kts | 254° |
| 2026-05-06 16:14 | 50.65764 | 70.37343 | 8849 ft | 293 kts | 267° |
| 2026-05-06 16:15 | 50.65919 | 70.34180 | 8244 ft | 294 kts | 279° |
| 2026-05-06 16:15 | 50.66544 | 70.31139 | 7711 ft | 293 kts | 296° |
| 2026-05-06 16:15 | 50.67839 | 70.28717 | 7454 ft | 288 kts | 320° |
| 2026-05-06 16:15 | 50.69600 | 70.27261 | 7206 ft | 285 kts | 338° |
| 2026-05-06 16:16 | 50.71507 | 70.26637 | 6960 ft | 282 kts | 356° |
| 2026-05-06 16:16 | 50.73415 | 70.27152 | 6717 ft | 279 kts | 21° |
| 2026-05-06 16:16 | 50.75045 | 70.28780 | 6473 ft | 276 kts | 40° |
| 2026-05-06 16:16 | 50.76323 | 70.30989 | 6231 ft | 274 kts | 55° |
| 2026-05-06 16:17 | 50.77061 | 70.33733 | 5990 ft | 273 kts | 78° |
| 2026-05-06 16:17 | 50.77330 | 70.36695 | 5746 ft | 271 kts | 83° |
| 2026-05-06 16:17 | 50.77548 | 70.39625 | 5504 ft | 268 kts | 82° |
| 2026-05-06 16:17 | 50.77782 | 70.42503 | 5395 ft | 265 kts | 82° |
| 2026-05-06 16:18 | 50.78041 | 70.45393 | 5408 ft | 266 kts | 81° |
| 2026-05-06 16:18 | 50.78304 | 70.48297 | 5392 ft | 268 kts | 81° |
| 2026-05-06 16:18 | 50.78559 | 70.51181 | 5398 ft | 264 kts | 81° |
| 2026-05-06 16:18 | 50.78826 | 70.54083 | 5344 ft | 266 kts | 81° |
| 2026-05-06 16:19 | 50.79091 | 70.56970 | 5369 ft | 267 kts | 81° |
| 2026-05-06 16:19 | 50.79348 | 70.59860 | 5327 ft | 267 kts | 81° |
| 2026-05-06 16:19 | 50.79599 | 70.62734 | 5327 ft | 267 kts | 81° |
| 2026-05-06 16:19 | 50.79853 | 70.65656 | 5298 ft | 264 kts | 82° |
| 2026-05-06 16:20 | 50.80113 | 70.68529 | 5264 ft | 268 kts | 81° |
| 2026-05-06 16:20 | 50.80383 | 70.71426 | 5244 ft | 264 kts | 81° |
| 2026-05-06 16:20 | 50.80649 | 70.74314 | 5202 ft | 264 kts | 81° |
| 2026-05-06 16:20 | 50.80906 | 70.77195 | 5140 ft | 267 kts | 82° |
| 2026-05-06 16:21 | 50.81150 | 70.80084 | 5007 ft | 264 kts | 82° |
| 2026-05-06 16:21 | 50.81393 | 70.82973 | 4942 ft | 261 kts | 81° |
| 2026-05-06 16:21 | 50.81641 | 70.85813 | 4909 ft | 262 kts | 81° |
| 2026-05-06 16:21 | 50.81893 | 70.88660 | 4873 ft | 262 kts | 81° |
| 2026-05-06 16:22 | 50.82140 | 70.91502 | 4837 ft | 262 kts | 81° |
| 2026-05-06 16:22 | 50.82377 | 70.94338 | 4805 ft | 261 kts | 82° |
| 2026-05-06 16:22 | 50.82611 | 70.97181 | 4774 ft | 260 kts | 82° |
| 2026-05-06 16:22 | 50.82845 | 70.99960 | 4751 ft | 250 kts | 82° |
| 2026-05-06 16:23 | 50.83084 | 71.02674 | 4744 ft | 246 kts | 82° |
| 2026-05-06 16:23 | 50.83327 | 71.05374 | 4732 ft | 249 kts | 82° |
| 2026-05-06 16:23 | 50.83564 | 71.08084 | 4721 ft | 248 kts | 82° |
| 2026-05-06 16:23 | 50.83797 | 71.10784 | 4710 ft | 247 kts | 82° |
| 2026-05-06 16:24 | 50.84027 | 71.13487 | 4700 ft | 249 kts | 82° |
| 2026-05-06 16:24 | 50.84254 | 71.16186 | 4688 ft | 247 kts | 82° |
| 2026-05-06 16:24 | 50.84685 | 71.18810 | 4683 ft | 248 kts | 64° |
| 2026-05-06 16:24 | 50.85673 | 71.21038 | 4668 ft | 250 kts | 47° |
| 2026-05-06 16:25 | 50.86903 | 71.22954 | 4655 ft | 250 kts | 42° |
| 2026-05-06 16:25 | 50.88166 | 71.24805 | 4642 ft | 246 kts | 43° |
| 2026-05-06 16:25 | 50.89375 | 71.26647 | 4389 ft | 231 kts | 44° |
| 2026-05-06 16:25 | 50.90474 | 71.28352 | 4088 ft | 213 kts | 44° |
| 2026-05-06 16:26 | 50.91491 | 71.29927 | 3825 ft | 196 kts | 45° |
| 2026-05-06 16:26 | 50.92421 | 71.31366 | 3556 ft | 182 kts | 45° |
| 2026-05-06 16:26 | 50.93292 | 71.32716 | 3327 ft | 167 kts | 45° |
| 2026-05-06 16:26 | 50.94073 | 71.33925 | 3161 ft | 152 kts | 45° |
| 2026-05-06 16:27 | 50.94819 | 71.35079 | 2889 ft | 145 kts | 45° |
| 2026-05-06 16:27 | 50.95520 | 71.36167 | 2738 ft | 142 kts | 45° |
| 2026-05-06 16:27 | 50.96228 | 71.37267 | 2528 ft | 143 kts | 45° |
| 2026-05-06 16:27 | 50.96934 | 71.38364 | 2343 ft | 143 kts | 46° |
| 2026-05-06 16:28 | 50.97650 | 71.39475 | 2151 ft | 142 kts | 46° |
| 2026-05-06 16:28 | 50.98350 | 71.40566 | 1959 ft | 141 kts | 46° |
| 2026-05-06 16:28 | 50.99054 | 71.41647 | 1777 ft | 142 kts | 45° |
| 2026-05-06 16:28 | 50.99764 | 71.42734 | 1586 ft | 140 kts | 46° |
| 2026-05-06 16:29 | 51.00456 | 71.43810 | 1396 ft | 138 kts | 46° |
| 2026-05-06 16:29 | 51.01137 | 71.44873 | 1219 ft | 138 kts | 45° |
| 2026-05-06 16:29 | 51.01757 | 71.45840 | 1174 ft | 100 kts | 45° |
| 2026-05-06 16:29 | 51.02120 | 71.46410 | 1174 ft | 57 kts | 44° |
| 2026-05-06 16:30 | 51.02350 | 71.46761 | 1174 ft | 34 kts | 44° |
| 2026-05-06 16:30 | 51.02449 | 71.46921 | 1174 ft | 18 kts | 40° |
| 2026-05-06 16:30 | 51.02562 | 71.46858 | 1173 ft | 11 kts | 313° |
| 2026-05-06 16:30 | 51.02611 | 71.46774 | 1173 ft | 9 kts | 313° |
| 2026-05-06 16:31 | 51.02655 | 71.46699 | 1174 ft | 8 kts | 313° |
| 2026-05-06 16:31 | 51.02691 | 71.46639 | 1173 ft | 6 kts | 313° |
| 2026-05-06 16:31 | 51.02703 | 71.46579 | 1173 ft | 5 kts | 253° |
| 2026-05-06 16:31 | 51.02677 | 71.46520 | 1174 ft | 9 kts | 226° |
| 2026-05-06 16:32 | 51.02631 | 71.46412 | 1173 ft | 9 kts | 269° |
| 2026-05-06 16:32 | 51.02650 | 71.46345 | 1174 ft | 4 kts | 313° |
| 2026-05-06 16:32 | 51.02669 | 71.46315 | 1174 ft | 3 kts | 315° |
| 2026-05-06 16:32 | 51.02685 | 71.46290 | 1173 ft | 3 kts | 314° |
| 2026-05-06 16:33 | 51.02692 | 71.46279 | 1173 ft | 0 kts | 314° |